sensor_id;sensor_type;location;lat;lon;timestamp;temperature;humidity
70089;HTU21D;57460;47.134;19.888;2023-01-10T00:01:39;8.58;83.61
70089;HTU21D;57460;47.134;19.888;2023-01-10T00:04:08;8.56;83.64
70089;HTU21D;57460;47.134;19.888;2023-01-10T00:06:34;8.62;82.71
70089;HTU21D;57460;47.134;19.888;2023-01-10T00:09:00;8.55;83.22
70089;HTU21D;57460;47.134;19.888;2023-01-10T00:11:26;8.51;83.31
70089;HTU21D;57460;47.134;19.888;2023-01-10T00:14:11;8.45;83.95
70089;HTU21D;57460;47.134;19.888;2023-01-10T00:16:37;8.49;83.84
70089;HTU21D;57460;47.134;19.888;2023-01-10T00:19:05;8.51;83.62
70089;HTU21D;57460;47.134;19.888;2023-01-10T00:21:31;8.57;83.49
70089;HTU21D;57460;47.134;19.888;2023-01-10T00:23:57;8.57;83.76
70089;HTU21D;57460;47.134;19.888;2023-01-10T00:26:33;8.64;83.17
70089;HTU21D;57460;47.134;19.888;2023-01-10T00:28:59;8.73;82.94
70089;HTU21D;57460;47.134;19.888;2023-01-10T00:31:24;8.82;82.36
70089;HTU21D;57460;47.134;19.888;2023-01-10T00:33:50;8.91;81.92
70089;HTU21D;57460;47.134;19.888;2023-01-10T00:36:16;8.93;81.91
70089;HTU21D;57460;47.134;19.888;2023-01-10T00:38:42;8.96;81.67
70089;HTU21D;57460;47.134;19.888;2023-01-10T00:41:08;8.98;81.67
70089;HTU21D;57460;47.134;19.888;2023-01-10T00:43:53;9.09;81.31
70089;HTU21D;57460;47.134;19.888;2023-01-10T00:46:21;9.16;81.02
70089;HTU21D;57460;47.134;19.888;2023-01-10T00:48:47;9.21;80.72
70089;HTU21D;57460;47.134;19.888;2023-01-10T00:51:13;9.20;80.90
70089;HTU21D;57460;47.134;19.888;2023-01-10T00:53:39;9.22;80.78
70089;HTU21D;57460;47.134;19.888;2023-01-10T00:56:05;9.25;80.83
70089;HTU21D;57460;47.134;19.888;2023-01-10T00:58:30;9.25;80.31
70089;HTU21D;57460;47.134;19.888;2023-01-10T01:00:57;9.29;80.30
70089;HTU21D;57460;47.134;19.888;2023-01-10T01:03:23;9.30;80.17
70089;HTU21D;57460;47.134;19.888;2023-01-10T01:05:49;9.31;80.49
70089;HTU21D;57460;47.134;19.888;2023-01-10T01:08:16;9.36;80.17
70089;HTU21D;57460;47.134;19.888;2023-01-10T01:10:43;9.41;80.27
70089;HTU21D;57460;47.134;19.888;2023-01-10T01:13:13;9.41;80.17
70089;HTU21D;57460;47.134;19.888;2023-01-10T01:15:40;9.42;80.04
70089;HTU21D;57460;47.134;19.888;2023-01-10T01:18:06;9.45;80.06
70089;HTU21D;57460;47.134;19.888;2023-01-10T01:20:32;9.46;80.24
70089;HTU21D;57460;47.134;19.888;2023-01-10T01:22:58;9.45;80.55
70089;HTU21D;57460;47.134;19.888;2023-01-10T01:25:25;9.48;80.33
70089;HTU21D;57460;47.134;19.888;2023-01-10T01:27:51;9.48;80.33
70089;HTU21D;57460;47.134;19.888;2023-01-10T01:30:17;9.50;80.37
70089;HTU21D;57460;47.134;19.888;2023-01-10T01:32:43;9.48;80.43
70089;HTU21D;57460;47.134;19.888;2023-01-10T01:35:13;9.50;80.36
70089;HTU21D;57460;47.134;19.888;2023-01-10T01:37:40;9.52;80.44
70089;HTU21D;57460;47.134;19.888;2023-01-10T01:40:06;9.53;80.20
70089;HTU21D;57460;47.134;19.888;2023-01-10T01:42:34;9.54;80.18
70089;HTU21D;57460;47.134;19.888;2023-01-10T01:48:08;9.59;80.36
70089;HTU21D;57460;47.134;19.888;2023-01-10T01:55:50;9.59;80.49
70089;HTU21D;57460;47.134;19.888;2023-01-10T01:58:26;9.46;82.07
70089;HTU21D;57460;47.134;19.888;2023-01-10T02:00:54;9.34;81.46
70089;HTU21D;57460;47.134;19.888;2023-01-10T02:03:24;9.21;82.33
70089;HTU21D;57460;47.134;19.888;2023-01-10T02:05:50;9.11;83.29
70089;HTU21D;57460;47.134;19.888;2023-01-10T02:08:15;9.16;81.74
70089;HTU21D;57460;47.134;19.888;2023-01-10T02:11:05;9.21;81.91
70089;HTU21D;57460;47.134;19.888;2023-01-10T02:13:39;9.29;80.74
70089;HTU21D;57460;47.134;19.888;2023-01-10T02:16:05;9.30;81.30
70089;HTU21D;57460;47.134;19.888;2023-01-10T02:18:32;9.30;81.78
70089;HTU21D;57460;47.134;19.888;2023-01-10T02:40:31;9.16;83.81
70089;HTU21D;57460;47.134;19.888;2023-01-10T02:43:19;9.16;83.88
70089;HTU21D;57460;47.134;19.888;2023-01-10T02:46:24;9.11;83.83
70089;HTU21D;57460;47.134;19.888;2023-01-10T02:48:42;9.22;83.10
70089;HTU21D;57460;47.134;19.888;2023-01-10T02:51:29;9.31;82.41
70089;HTU21D;57460;47.134;19.888;2023-01-10T02:54:17;9.40;82.68
70089;HTU21D;57460;47.134;19.888;2023-01-10T02:59:58;9.59;81.13
70089;HTU21D;57460;47.134;19.888;2023-01-10T03:11:28;9.40;82.16
70089;HTU21D;57460;47.134;19.888;2023-01-10T03:14:12;9.24;83.41
70089;HTU21D;57460;47.134;19.888;2023-01-10T03:16:45;9.23;82.80
70089;HTU21D;57460;47.134;19.888;2023-01-10T03:21:55;9.16;83.36
70089;HTU21D;57460;47.134;19.888;2023-01-10T03:24:33;9.23;82.33
70089;HTU21D;57460;47.134;19.888;2023-01-10T03:37:58;9.23;83.36
70089;HTU21D;57460;47.134;19.888;2023-01-10T03:40:54;9.16;84.28
70089;HTU21D;57460;47.134;19.888;2023-01-10T03:46:29;9.19;83.58
70089;HTU21D;57460;47.134;19.888;2023-01-10T03:48:59;9.14;84.69
70089;HTU21D;57460;47.134;19.888;2023-01-10T03:51:28;9.15;84.23
70089;HTU21D;57460;47.134;19.888;2023-01-10T03:53:59;9.16;84.09
70089;HTU21D;57460;47.134;19.888;2023-01-10T03:56:25;9.18;83.98
70089;HTU21D;57460;47.134;19.888;2023-01-10T03:58:51;9.16;84.25
70089;HTU21D;57460;47.134;19.888;2023-01-10T04:01:17;9.12;84.46
70089;HTU21D;57460;47.134;19.888;2023-01-10T04:03:43;9.15;84.20
70089;HTU21D;57460;47.134;19.888;2023-01-10T04:06:09;9.19;84.29
70089;HTU21D;57460;47.134;19.888;2023-01-10T04:08:35;9.30;83.48
70089;HTU21D;57460;47.134;19.888;2023-01-10T04:11:00;9.37;83.07
70089;HTU21D;57460;47.134;19.888;2023-01-10T04:13:26;9.42;82.79
70089;HTU21D;57460;47.134;19.888;2023-01-10T04:15:52;9.47;82.44
70089;HTU21D;57460;47.134;19.888;2023-01-10T04:18:18;9.49;82.36
70089;HTU21D;57460;47.134;19.888;2023-01-10T04:20:44;9.52;81.75
70089;HTU21D;57460;47.134;19.888;2023-01-10T04:23:10;9.54;81.75
70089;HTU21D;57460;47.134;19.888;2023-01-10T04:25:35;9.57;81.64
70089;HTU21D;57460;47.134;19.888;2023-01-10T04:28:01;9.57;81.97
70089;HTU21D;57460;47.134;19.888;2023-01-10T04:33:05;9.30;83.58
70089;HTU21D;57460;47.134;19.888;2023-01-10T04:35:35;9.23;83.73
70089;HTU21D;57460;47.134;19.888;2023-01-10T04:38:01;9.25;83.55
70089;HTU21D;57460;47.134;19.888;2023-01-10T04:40:26;9.34;82.75
70089;HTU21D;57460;47.134;19.888;2023-01-10T04:42:52;9.44;82.12
70089;HTU21D;57460;47.134;19.888;2023-01-10T04:45:18;9.47;82.10
70089;HTU21D;57460;47.134;19.888;2023-01-10T04:47:51;9.51;82.01
70089;HTU21D;57460;47.134;19.888;2023-01-10T04:50:21;9.53;81.90
70089;HTU21D;57460;47.134;19.888;2023-01-10T04:52:48;9.51;81.96
70089;HTU21D;57460;47.134;19.888;2023-01-10T04:55:14;9.47;82.12
70089;HTU21D;57460;47.134;19.888;2023-01-10T04:57:40;9.45;82.44
70089;HTU21D;57460;47.134;19.888;2023-01-10T05:00:06;9.46;82.46
70089;HTU21D;57460;47.134;19.888;2023-01-10T05:02:32;9.41;82.95
70089;HTU21D;57460;47.134;19.888;2023-01-10T05:04:58;9.38;82.84
70089;HTU21D;57460;47.134;19.888;2023-01-10T05:07:24;9.33;83.36
70089;HTU21D;57460;47.134;19.888;2023-01-10T05:09:50;9.34;83.22
70089;HTU21D;57460;47.134;19.888;2023-01-10T05:12:16;9.39;82.62
70089;HTU21D;57460;47.134;19.888;2023-01-10T05:14:41;9.47;82.45
70089;HTU21D;57460;47.134;19.888;2023-01-10T05:17:07;9.50;82.49
70089;HTU21D;57460;47.134;19.888;2023-01-10T05:19:33;9.55;81.78
70089;HTU21D;57460;47.134;19.888;2023-01-10T05:21:59;9.59;81.45
70089;HTU21D;57460;47.134;19.888;2023-01-10T05:24:24;9.61;81.53
70089;HTU21D;57460;47.134;19.888;2023-01-10T05:26:50;9.60;81.85
70089;HTU21D;57460;47.134;19.888;2023-01-10T05:29:16;9.63;81.42
70089;HTU21D;57460;47.134;19.888;2023-01-10T05:31:42;9.63;81.52
70089;HTU21D;57460;47.134;19.888;2023-01-10T05:34:11;9.64;81.24
70089;HTU21D;57460;47.134;19.888;2023-01-10T05:36:37;9.66;81.19
70089;HTU21D;57460;47.134;19.888;2023-01-10T05:39:03;9.66;81.10
70089;HTU21D;57460;47.134;19.888;2023-01-10T05:41:29;9.67;81.19
70089;HTU21D;57460;47.134;19.888;2023-01-10T05:43:55;9.70;80.98
70089;HTU21D;57460;47.134;19.888;2023-01-10T05:46:21;9.72;80.84
70089;HTU21D;57460;47.134;19.888;2023-01-10T05:48:46;9.68;81.00
70089;HTU21D;57460;47.134;19.888;2023-01-10T05:51:12;9.68;81.09
70089;HTU21D;57460;47.134;19.888;2023-01-10T05:53:38;9.67;80.74
70089;HTU21D;57460;47.134;19.888;2023-01-10T05:56:04;9.68;80.89
70089;HTU21D;57460;47.134;19.888;2023-01-10T05:58:32;9.66;80.94
70089;HTU21D;57460;47.134;19.888;2023-01-10T06:00:57;9.65;80.85
70089;HTU21D;57460;47.134;19.888;2023-01-10T06:03:24;9.67;80.63
70089;HTU21D;57460;47.134;19.888;2023-01-10T06:05:52;9.63;81.07
70089;HTU21D;57460;47.134;19.888;2023-01-10T06:08:17;9.65;80.61
70089;HTU21D;57460;47.134;19.888;2023-01-10T06:10:43;9.66;80.59
70089;HTU21D;57460;47.134;19.888;2023-01-10T06:13:09;9.67;80.82
70089;HTU21D;57460;47.134;19.888;2023-01-10T06:15:37;9.67;80.69
70089;HTU21D;57460;47.134;19.888;2023-01-10T06:18:03;9.65;80.97
70089;HTU21D;57460;47.134;19.888;2023-01-10T06:20:29;9.61;81.27
70089;HTU21D;57460;47.134;19.888;2023-01-10T06:22:55;9.61;80.98
70089;HTU21D;57460;47.134;19.888;2023-01-10T06:25:23;9.59;80.80
70089;HTU21D;57460;47.134;19.888;2023-01-10T06:27:48;9.57;80.78
70089;HTU21D;57460;47.134;19.888;2023-01-10T06:30:14;9.55;81.31
70089;HTU21D;57460;47.134;19.888;2023-01-10T06:32:40;9.53;80.74
70089;HTU21D;57460;47.134;19.888;2023-01-10T06:35:07;9.47;81.22
70089;HTU21D;57460;47.134;19.888;2023-01-10T06:37:33;9.36;81.85
70089;HTU21D;57460;47.134;19.888;2023-01-10T06:39:59;9.26;82.18
70089;HTU21D;57460;47.134;19.888;2023-01-10T06:42:25;9.23;81.66
70089;HTU21D;57460;47.134;19.888;2023-01-10T06:44:50;9.21;81.90
70089;HTU21D;57460;47.134;19.888;2023-01-10T06:47:24;9.20;82.01
70089;HTU21D;57460;47.134;19.888;2023-01-10T06:50:05;9.21;81.96
70089;HTU21D;57460;47.134;19.888;2023-01-10T06:52:31;9.25;82.07
70089;HTU21D;57460;47.134;19.888;2023-01-10T06:54:58;9.33;81.62
70089;HTU21D;57460;47.134;19.888;2023-01-10T06:57:24;9.38;81.63
70089;HTU21D;57460;47.134;19.888;2023-01-10T06:59:49;9.45;81.49
70089;HTU21D;57460;47.134;19.888;2023-01-10T07:02:16;9.50;81.49
70089;HTU21D;57460;47.134;19.888;2023-01-10T07:04:42;9.55;81.39
70089;HTU21D;57460;47.134;19.888;2023-01-10T07:07:08;9.59;81.14
70089;HTU21D;57460;47.134;19.888;2023-01-10T07:09:34;9.57;81.33
70089;HTU21D;57460;47.134;19.888;2023-01-10T07:11:59;9.56;81.35
70089;HTU21D;57460;47.134;19.888;2023-01-10T07:14:25;9.56;81.01
70089;HTU21D;57460;47.134;19.888;2023-01-10T07:16:51;9.56;80.98
70089;HTU21D;57460;47.134;19.888;2023-01-10T07:19:17;9.54;81.06
70089;HTU21D;57460;47.134;19.888;2023-01-10T07:21:44;9.55;80.92
70089;HTU21D;57460;47.134;19.888;2023-01-10T07:24:10;9.57;80.88
70089;HTU21D;57460;47.134;19.888;2023-01-10T07:26:36;9.61;80.33
70089;HTU21D;57460;47.134;19.888;2023-01-10T07:29:02;9.57;80.98
70089;HTU21D;57460;47.134;19.888;2023-01-10T07:31:28;9.59;80.85
70089;HTU21D;57460;47.134;19.888;2023-01-10T07:33:54;9.62;80.66
70089;HTU21D;57460;47.134;19.888;2023-01-10T07:36:21;9.64;80.44
70089;HTU21D;57460;47.134;19.888;2023-01-10T07:38:47;9.63;80.48
70089;HTU21D;57460;47.134;19.888;2023-01-10T07:41:13;9.63;80.64
70089;HTU21D;57460;47.134;19.888;2023-01-10T07:43:38;9.64;80.48
70089;HTU21D;57460;47.134;19.888;2023-01-10T07:46:06;9.65;80.76
70089;HTU21D;57460;47.134;19.888;2023-01-10T07:48:37;9.68;80.54
70089;HTU21D;57460;47.134;19.888;2023-01-10T07:51:08;9.68;80.47
70089;HTU21D;57460;47.134;19.888;2023-01-10T07:53:37;9.74;79.98
70089;HTU21D;57460;47.134;19.888;2023-01-10T07:56:04;9.75;79.95
70089;HTU21D;57460;47.134;19.888;2023-01-10T07:58:30;9.72;80.01
70089;HTU21D;57460;47.134;19.888;2023-01-10T08:01:03;9.74;79.66
70089;HTU21D;57460;47.134;19.888;2023-01-10T08:03:29;9.75;79.75
70089;HTU21D;57460;47.134;19.888;2023-01-10T08:06:03;9.78;79.84
70089;HTU21D;57460;47.134;19.888;2023-01-10T08:08:30;9.80;79.78
70089;HTU21D;57460;47.134;19.888;2023-01-10T08:10:56;9.78;79.90
70089;HTU21D;57460;47.134;19.888;2023-01-10T08:13:24;9.74;80.25
70089;HTU21D;57460;47.134;19.888;2023-01-10T08:15:50;9.74;80.13
70089;HTU21D;57460;47.134;19.888;2023-01-10T08:18:18;9.75;80.23
70089;HTU21D;57460;47.134;19.888;2023-01-10T08:20:44;9.76;79.90
70089;HTU21D;57460;47.134;19.888;2023-01-10T08:23:12;9.77;79.85
70089;HTU21D;57460;47.134;19.888;2023-01-10T08:25:38;9.80;79.74
70089;HTU21D;57460;47.134;19.888;2023-01-10T08:28:05;9.81;79.67
70089;HTU21D;57460;47.134;19.888;2023-01-10T08:30:31;9.81;79.85
70089;HTU21D;57460;47.134;19.888;2023-01-10T08:33:00;9.84;79.84
70089;HTU21D;57460;47.134;19.888;2023-01-10T08:35:26;9.91;79.71
70089;HTU21D;57460;47.134;19.888;2023-01-10T08:37:52;9.93;79.54
70089;HTU21D;57460;47.134;19.888;2023-01-10T08:40:17;9.96;79.33
70089;HTU21D;57460;47.134;19.888;2023-01-10T08:42:43;9.92;79.27
70089;HTU21D;57460;47.134;19.888;2023-01-10T08:45:09;9.88;79.63
70089;HTU21D;57460;47.134;19.888;2023-01-10T08:47:35;9.91;79.74
70089;HTU21D;57460;47.134;19.888;2023-01-10T08:50:01;9.94;79.11
70089;HTU21D;57460;47.134;19.888;2023-01-10T08:52:27;9.84;78.99
70089;HTU21D;57460;47.134;19.888;2023-01-10T08:54:55;9.68;79.58
70089;HTU21D;57460;47.134;19.888;2023-01-10T08:57:36;9.57;79.56
70089;HTU21D;57460;47.134;19.888;2023-01-10T09:00:03;9.54;79.92
70089;HTU21D;57460;47.134;19.888;2023-01-10T09:02:32;9.52;80.12
70089;HTU21D;57460;47.134;19.888;2023-01-10T09:05:00;9.59;79.88
70089;HTU21D;57460;47.134;19.888;2023-01-10T09:07:26;9.59;79.85
70089;HTU21D;57460;47.134;19.888;2023-01-10T09:09:52;9.54;80.16
70089;HTU21D;57460;47.134;19.888;2023-01-10T09:12:29;9.54;80.07
70089;HTU21D;57460;47.134;19.888;2023-01-10T09:15:14;9.52;80.11
70089;HTU21D;57460;47.134;19.888;2023-01-10T09:17:43;9.40;80.31
70089;HTU21D;57460;47.134;19.888;2023-01-10T09:20:10;9.39;80.56
70089;HTU21D;57460;47.134;19.888;2023-01-10T09:22:37;9.39;80.39
70089;HTU21D;57460;47.134;19.888;2023-01-10T09:27:39;9.25;81.10
70089;HTU21D;57460;47.134;19.888;2023-01-10T09:32:32;9.22;81.35
70089;HTU21D;57460;47.134;19.888;2023-01-10T09:35:01;9.18;81.60
70089;HTU21D;57460;47.134;19.888;2023-01-10T09:37:27;9.24;80.98
70089;HTU21D;57460;47.134;19.888;2023-01-10T09:39:53;9.26;81.42
70089;HTU21D;57460;47.134;19.888;2023-01-10T09:47:51;9.25;80.91
70089;HTU21D;57460;47.134;19.888;2023-01-10T09:52:54;9.29;80.68
70089;HTU21D;57460;47.134;19.888;2023-01-10T09:55:32;9.33;80.74
70089;HTU21D;57460;47.134;19.888;2023-01-10T09:58:14;9.39;80.39
70089;HTU21D;57460;47.134;19.888;2023-01-10T10:00:59;9.40;80.52
70089;HTU21D;57460;47.134;19.888;2023-01-10T10:05:59;9.35;80.68
70089;HTU21D;57460;47.134;19.888;2023-01-10T10:08:27;9.33;80.81
70089;HTU21D;57460;47.134;19.888;2023-01-10T10:14:02;9.20;81.05
70089;HTU21D;57460;47.134;19.888;2023-01-10T10:22:26;9.31;81.24
70089;HTU21D;57460;47.134;19.888;2023-01-10T10:27:59;9.48;80.75
70089;HTU21D;57460;47.134;19.888;2023-01-10T10:30:45;9.49;80.64
70089;HTU21D;57460;47.134;19.888;2023-01-10T10:36:18;9.50;80.11
70089;HTU21D;57460;47.134;19.888;2023-01-10T10:38:48;9.52;80.02
70089;HTU21D;57460;47.134;19.888;2023-01-10T10:44:32;9.41;80.56
70089;HTU21D;57460;47.134;19.888;2023-01-10T10:47:00;9.39;80.59
70089;HTU21D;57460;47.134;19.888;2023-01-10T10:49:40;9.42;80.78
70089;HTU21D;57460;47.134;19.888;2023-01-10T10:52:33;9.49;80.59
70089;HTU21D;57460;47.134;19.888;2023-01-10T10:55:01;9.54;80.33
70089;HTU21D;57460;47.134;19.888;2023-01-10T10:57:37;9.57;80.26
70089;HTU21D;57460;47.134;19.888;2023-01-10T11:00:05;9.60;80.14
70089;HTU21D;57460;47.134;19.888;2023-01-10T11:05:43;9.60;79.95
70089;HTU21D;57460;47.134;19.888;2023-01-10T11:08:13;9.57;79.84
70089;HTU21D;57460;47.134;19.888;2023-01-10T11:10:54;9.53;80.20
70089;HTU21D;57460;47.134;19.888;2023-01-10T11:16:00;9.44;80.71
70089;HTU21D;57460;47.134;19.888;2023-01-10T11:18:30;9.52;79.42
70089;HTU21D;57460;47.134;19.888;2023-01-10T11:21:13;9.46;80.98
70089;HTU21D;57460;47.134;19.888;2023-01-10T11:23:48;9.49;80.03
70089;HTU21D;57460;47.134;19.888;2023-01-10T11:26:27;9.48;80.59
70089;HTU21D;57460;47.134;19.888;2023-01-10T11:31:39;9.52;79.71
70089;HTU21D;57460;47.134;19.888;2023-01-10T11:37:05;9.49;80.43
70089;HTU21D;57460;47.134;19.888;2023-01-10T11:39:42;9.49;79.75
70089;HTU21D;57460;47.134;19.888;2023-01-10T11:42:28;9.39;80.27
70089;HTU21D;57460;47.134;19.888;2023-01-10T11:48:07;9.34;80.01
70089;HTU21D;57460;47.134;19.888;2023-01-10T11:50:36;9.25;80.76
70089;HTU21D;57460;47.134;19.888;2023-01-10T11:53:05;9.25;80.44
70089;HTU21D;57460;47.134;19.888;2023-01-10T11:55:35;9.26;80.15
70089;HTU21D;57460;47.134;19.888;2023-01-10T11:58:12;9.24;80.59
70089;HTU21D;57460;47.134;19.888;2023-01-10T12:00:48;9.22;81.15
70089;HTU21D;57460;47.134;19.888;2023-01-10T12:03:22;9.24;80.64
70089;HTU21D;57460;47.134;19.888;2023-01-10T12:05:59;9.21;82.00
70089;HTU21D;57460;47.134;19.888;2023-01-10T12:08:31;9.20;82.05
70089;HTU21D;57460;47.134;19.888;2023-01-10T12:11:04;9.19;81.63
70089;HTU21D;57460;47.134;19.888;2023-01-10T12:13:46;9.21;81.75
70089;HTU21D;57460;47.134;19.888;2023-01-10T12:16:25;9.11;82.64
70089;HTU21D;57460;47.134;19.888;2023-01-10T12:18:55;9.12;81.17
70089;HTU21D;57460;47.134;19.888;2023-01-10T12:21:36;9.11;81.36
70089;HTU21D;57460;47.134;19.888;2023-01-10T12:24:22;9.04;82.19
70089;HTU21D;57460;47.134;19.888;2023-01-10T12:26:50;9.00;81.73
70089;HTU21D;57460;47.134;19.888;2023-01-10T12:29:28;8.91;83.06
70089;HTU21D;57460;47.134;19.888;2023-01-10T12:32:00;8.92;82.68
70089;HTU21D;57460;47.134;19.888;2023-01-10T12:34:49;8.89;83.23
70089;HTU21D;57460;47.134;19.888;2023-01-10T12:41:01;8.87;83.04
70089;HTU21D;57460;47.134;19.888;2023-01-10T12:43:35;8.83;82.55
70089;HTU21D;57460;47.134;19.888;2023-01-10T12:46:25;8.79;83.48
70089;HTU21D;57460;47.134;19.888;2023-01-10T12:49:12;8.83;82.78
70089;HTU21D;57460;47.134;19.888;2023-01-10T12:51:40;8.87;83.10
70089;HTU21D;57460;47.134;19.888;2023-01-10T12:54:21;8.86;82.99
70089;HTU21D;57460;47.134;19.888;2023-01-10T12:56:49;8.91;81.88
70089;HTU21D;57460;47.134;19.888;2023-01-10T12:59:39;8.89;81.86
70089;HTU21D;57460;47.134;19.888;2023-01-10T13:02:18;8.89;81.92
70089;HTU21D;57460;47.134;19.888;2023-01-10T13:04:51;8.82;82.55
70089;HTU21D;57460;47.134;19.888;2023-01-10T13:07:19;8.83;82.37
70089;HTU21D;57460;47.134;19.888;2023-01-10T13:09:48;8.83;81.81
70089;HTU21D;57460;47.134;19.888;2023-01-10T13:12:37;9.10;80.32
70089;HTU21D;57460;47.134;19.888;2023-01-10T13:15:21;8.75;82.44
70089;HTU21D;57460;47.134;19.888;2023-01-10T13:18:14;8.68;81.89
70089;HTU21D;57460;47.134;19.888;2023-01-10T13:20:46;8.63;81.13
70089;HTU21D;57460;47.134;19.888;2023-01-10T13:23:29;8.38;83.42
70089;HTU21D;57460;47.134;19.888;2023-01-10T13:26:03;8.24;84.25
70089;HTU21D;57460;47.134;19.888;2023-01-10T13:28:51;8.22;84.21
70089;HTU21D;57460;47.134;19.888;2023-01-10T13:31:34;8.17;83.52
70089;HTU21D;57460;47.134;19.888;2023-01-10T13:34:12;8.06;83.84
70089;HTU21D;57460;47.134;19.888;2023-01-10T13:37:11;7.94;84.78
70089;HTU21D;57460;47.134;19.888;2023-01-10T13:39:40;8.08;83.29
70089;HTU21D;57460;47.134;19.888;2023-01-10T13:42:31;8.13;82.75
70089;HTU21D;57460;47.134;19.888;2023-01-10T13:45:25;8.17;82.07
70089;HTU21D;57460;47.134;19.888;2023-01-10T13:55:55;8.08;83.07
70089;HTU21D;57460;47.134;19.888;2023-01-10T14:01:26;8.03;83.07
70089;HTU21D;57460;47.134;19.888;2023-01-10T14:04:28;8.08;82.52
70089;HTU21D;57460;47.134;19.888;2023-01-10T14:07:01;7.90;83.40
70089;HTU21D;57460;47.134;19.888;2023-01-10T14:09:43;7.82;83.71
70089;HTU21D;57460;47.134;19.888;2023-01-10T14:15:04;7.73;84.46
70089;HTU21D;57460;47.134;19.888;2023-01-10T14:17:40;7.90;82.69
70089;HTU21D;57460;47.134;19.888;2023-01-10T14:25:56;7.73;84.13
70089;HTU21D;57460;47.134;19.888;2023-01-10T14:28:41;7.83;83.90
70089;HTU21D;57460;47.134;19.888;2023-01-10T14:33:36;7.76;84.23
70089;HTU21D;57460;47.134;19.888;2023-01-10T14:36:16;7.82;84.09
70089;HTU21D;57460;47.134;19.888;2023-01-10T14:38:54;8.00;82.23
70089;HTU21D;57460;47.134;19.888;2023-01-10T14:41:35;8.23;81.07
70089;HTU21D;57460;47.134;19.888;2023-01-10T14:44:16;8.04;82.36
70089;HTU21D;57460;47.134;19.888;2023-01-10T14:46:58;7.97;82.91
70089;HTU21D;57460;47.134;19.888;2023-01-10T14:49:47;8.02;82.32
70089;HTU21D;57460;47.134;19.888;2023-01-10T14:52:32;8.03;82.01
70089;HTU21D;57460;47.134;19.888;2023-01-10T14:55:10;8.17;81.44
70089;HTU21D;57460;47.134;19.888;2023-01-10T14:57:36;8.11;81.56
70089;HTU21D;57460;47.134;19.888;2023-01-10T15:00:11;8.09;81.64
70089;HTU21D;57460;47.134;19.888;2023-01-10T15:02:47;8.11;82.02
70089;HTU21D;57460;47.134;19.888;2023-01-10T15:05:28;8.05;82.69
70089;HTU21D;57460;47.134;19.888;2023-01-10T15:08:19;8.03;82.74
70089;HTU21D;57460;47.134;19.888;2023-01-10T15:11:03;8.14;82.06
70089;HTU21D;57460;47.134;19.888;2023-01-10T15:13:37;8.20;81.51
70089;HTU21D;57460;47.134;19.888;2023-01-10T15:16:20;8.19;81.70
70089;HTU21D;57460;47.134;19.888;2023-01-10T15:18:51;8.08;82.05
70089;HTU21D;57460;47.134;19.888;2023-01-10T15:21:27;8.28;81.39
70089;HTU21D;57460;47.134;19.888;2023-01-10T15:23:53;8.22;81.27
70089;HTU21D;57460;47.134;19.888;2023-01-10T15:26:30;8.35;81.03
70089;HTU21D;57460;47.134;19.888;2023-01-10T15:29:24;8.30;81.22
70089;HTU21D;57460;47.134;19.888;2023-01-10T15:32:25;8.20;81.75
70089;HTU21D;57460;47.134;19.888;2023-01-10T15:35:00;8.33;81.22
70089;HTU21D;57460;47.134;19.888;2023-01-10T15:37:31;8.24;81.35
70089;HTU21D;57460;47.134;19.888;2023-01-10T15:40:24;8.37;80.93
70089;HTU21D;57460;47.134;19.888;2023-01-10T15:42:50;8.46;80.49
70089;HTU21D;57460;47.134;19.888;2023-01-10T15:53:53;8.12;81.32
70089;HTU21D;57460;47.134;19.888;2023-01-10T15:56:34;8.24;81.11
70089;HTU21D;57460;47.134;19.888;2023-01-10T16:01:36;8.29;80.98
70089;HTU21D;57460;47.134;19.888;2023-01-10T16:04:24;8.24;80.39
70089;HTU21D;57460;47.134;19.888;2023-01-10T16:07:17;8.26;80.38
70089;HTU21D;57460;47.134;19.888;2023-01-10T16:10:21;8.37;80.15
70089;HTU21D;57460;47.134;19.888;2023-01-10T16:13:08;8.55;79.59
70089;HTU21D;57460;47.134;19.888;2023-01-10T16:16:19;8.46;80.23
70089;HTU21D;57460;47.134;19.888;2023-01-10T16:18:48;8.56;79.87
70089;HTU21D;57460;47.134;19.888;2023-01-10T16:21:14;8.62;79.61
70089;HTU21D;57460;47.134;19.888;2023-01-10T16:24:01;8.64;79.60
70089;HTU21D;57460;47.134;19.888;2023-01-10T16:26:32;8.52;80.30
70089;HTU21D;57460;47.134;19.888;2023-01-10T16:28:59;8.60;80.19
70089;HTU21D;57460;47.134;19.888;2023-01-10T16:31:33;8.62;79.87
70089;HTU21D;57460;47.134;19.888;2023-01-10T16:33:59;8.58;79.88
70089;HTU21D;57460;47.134;19.888;2023-01-10T16:36:32;8.44;80.44
70089;HTU21D;57460;47.134;19.888;2023-01-10T16:39:17;8.43;80.40
70089;HTU21D;57460;47.134;19.888;2023-01-10T16:44:38;8.47;80.03
70089;HTU21D;57460;47.134;19.888;2023-01-10T16:47:06;8.39;80.39
70089;HTU21D;57460;47.134;19.888;2023-01-10T16:49:36;8.51;79.95
70089;HTU21D;57460;47.134;19.888;2023-01-10T16:54:47;8.46;79.84
70089;HTU21D;57460;47.134;19.888;2023-01-10T16:57:15;8.31;80.61
70089;HTU21D;57460;47.134;19.888;2023-01-10T17:02:25;8.42;80.13
70089;HTU21D;57460;47.134;19.888;2023-01-10T17:05:26;8.27;80.72
70089;HTU21D;57460;47.134;19.888;2023-01-10T17:08:20;8.45;80.20
70089;HTU21D;57460;47.134;19.888;2023-01-10T17:13:57;8.41;80.27
70089;HTU21D;57460;47.134;19.888;2023-01-10T17:19:01;8.38;80.11
70089;HTU21D;57460;47.134;19.888;2023-01-10T17:21:56;8.39;79.93
70089;HTU21D;57460;47.134;19.888;2023-01-10T17:25:16;8.35;80.30
70089;HTU21D;57460;47.134;19.888;2023-01-10T17:33:29;8.38;80.07
70089;HTU21D;57460;47.134;19.888;2023-01-10T17:42:27;8.41;80.32
70089;HTU21D;57460;47.134;19.888;2023-01-10T17:44:53;8.46;79.90
70089;HTU21D;57460;47.134;19.888;2023-01-10T17:47:30;8.53;79.61
70089;HTU21D;57460;47.134;19.888;2023-01-10T17:53:10;8.45;79.59
70089;HTU21D;57460;47.134;19.888;2023-01-10T18:10:37;8.57;78.73
70089;HTU21D;57460;47.134;19.888;2023-01-10T18:19:50;8.51;78.33
70089;HTU21D;57460;47.134;19.888;2023-01-10T18:22:39;8.51;78.18
70089;HTU21D;57460;47.134;19.888;2023-01-10T18:25:28;8.49;78.02
70089;HTU21D;57460;47.134;19.888;2023-01-10T18:28:07;8.51;77.78
70089;HTU21D;57460;47.134;19.888;2023-01-10T18:30:33;8.51;77.53
70089;HTU21D;57460;47.134;19.888;2023-01-10T18:33:02;8.57;77.04
70089;HTU21D;57460;47.134;19.888;2023-01-10T18:35:52;8.43;77.64
70089;HTU21D;57460;47.134;19.888;2023-01-10T18:38:41;8.43;77.88
70089;HTU21D;57460;47.134;19.888;2023-01-10T18:41:09;8.45;77.58
70089;HTU21D;57460;47.134;19.888;2023-01-10T18:43:41;8.36;77.85
70089;HTU21D;57460;47.134;19.888;2023-01-10T18:46:40;8.46;77.06
70089;HTU21D;57460;47.134;19.888;2023-01-10T18:49:37;8.36;77.89
70089;HTU21D;57460;47.134;19.888;2023-01-10T18:52:06;8.47;77.17
70089;HTU21D;57460;47.134;19.888;2023-01-10T18:54:35;8.32;77.65
70089;HTU21D;57460;47.134;19.888;2023-01-10T18:57:01;8.36;77.59
70089;HTU21D;57460;47.134;19.888;2023-01-10T18:59:30;8.38;77.34
70089;HTU21D;57460;47.134;19.888;2023-01-10T19:02:02;8.32;77.56